createdAt,value
2023-02-11T05:47:35.935Z,85.38
2023-02-11T05:50:04.173Z,65.82
2023-02-11T05:52:32.190Z,63.97
2023-02-11T05:55:00.447Z,50.88
2023-02-11T05:57:28.492Z,45.47
2023-02-11T05:59:56.403Z,36.88
2023-02-11T06:02:24.446Z,35.70
2023-02-11T06:04:53.803Z,37.38
2023-02-11T06:07:21.748Z,35.03
2023-02-11T06:09:49.715Z,39.20
2023-02-11T06:12:17.628Z,44.05
2023-02-11T06:14:45.575Z,49.00
2023-02-11T06:17:15.671Z,43.58
2023-02-11T06:19:43.736Z,46.53
2023-02-11T06:22:12.989Z,41.60
2023-02-11T06:24:59.899Z,43.53
2023-02-11T06:27:28.697Z,34.88
2023-02-11T06:29:56.795Z,38.67
2023-02-11T06:32:42.690Z,37.40
2023-02-11T06:35:12.711Z,35.58
2023-02-11T06:37:42.801Z,38.78
2023-02-11T06:40:11.764Z,48.50
2023-02-11T06:42:39.964Z,49.05
2023-02-11T06:45:09.313Z,46.67
2023-02-11T06:47:37.553Z,43.97
2023-02-11T06:50:06.519Z,39.00
2023-02-11T06:52:34.479Z,40.65
2023-02-11T06:55:03.788Z,42.38
2023-02-11T06:57:32.227Z,43.70
2023-02-11T07:00:00.135Z,41.47
2023-02-11T07:02:28.128Z,39.08
2023-02-11T07:04:56.161Z,40.97
2023-02-11T07:07:24.085Z,41.67
2023-02-11T07:09:51.998Z,36.83
2023-02-11T07:12:21.347Z,40.35
2023-02-11T07:14:49.267Z,37.53
2023-02-11T07:17:17.306Z,36.88
2023-02-11T07:19:45.244Z,42.75
2023-02-11T07:22:13.179Z,39.58
2023-02-11T07:24:41.164Z,42.58
2023-02-11T07:27:09.144Z,44.30
2023-02-11T07:29:38.440Z,43.38
2023-02-11T07:32:07.018Z,42.13
2023-02-11T07:34:35.093Z,41.42
2023-02-11T07:37:03.162Z,38.15
2023-02-11T07:39:31.231Z,41.00
2023-02-11T07:42:00.045Z,45.20
2023-02-11T07:44:28.109Z,47.97
2023-02-11T15:02:38.488Z,23.58
2023-02-11T15:05:22.541Z,22.73
2023-02-11T15:07:52.999Z,23.17
2023-02-11T15:10:29.324Z,21.08
2023-02-11T15:12:57.543Z,21.85
2023-02-11T15:15:26.495Z,20.30
2023-02-11T15:17:57.128Z,20.75
2023-02-11T15:20:28.613Z,21.63
2023-02-11T15:23:00.707Z,24.05
2023-02-11T15:25:29.094Z,27.13
2023-02-11T15:27:58.783Z,22.85
2023-02-11T15:30:31.528Z,21.33
2023-02-11T15:33:03.264Z,22.45
2023-02-11T15:35:34.990Z,20.92
2023-02-11T15:38:03.281Z,24.00
2023-02-11T15:40:33.411Z,24.83
2023-02-11T15:43:03.608Z,29.13
2023-02-11T15:45:34.406Z,25.83
2023-02-11T15:48:10.617Z,22.77
2023-02-11T15:50:40.693Z,31.50
2023-02-11T15:53:24.095Z,29.55
2023-02-11T15:55:54.614Z,22.77
2023-02-11T15:58:23.941Z,26.67
2023-02-11T16:00:59.637Z,31.27
2023-02-11T16:03:32.649Z,71.28
2023-02-11T16:06:22.928Z,61.97
2023-02-11T16:09:03.224Z,30.98
2023-02-11T16:11:32.644Z,27.80
2023-02-11T16:14:01.540Z,26.25
2023-02-11T16:16:32.890Z,27.33
2023-02-11T16:19:06.036Z,35.47
2023-02-11T16:21:38.894Z,33.33
2023-02-11T16:24:08.884Z,26.65
2023-02-11T16:26:40.919Z,25.25
2023-02-11T16:29:13.939Z,20.35
2023-02-11T16:31:44.050Z,22.63
2023-02-11T16:34:18.835Z,46.25
2023-02-11T16:36:47.257Z,43.33
2023-02-11T16:39:16.738Z,53.20
2023-02-11T16:41:45.049Z,38.20
2023-02-11T16:44:13.134Z,28.42
2023-02-11T16:46:41.598Z,33.80
2023-02-11T16:49:12.544Z,33.83
2023-02-11T16:51:42.834Z,31.60
2023-02-11T16:54:16.171Z,32.97
2023-02-11T16:56:44.547Z,30.75
2023-02-11T16:59:12.764Z,32.78
2023-02-11T17:01:43.066Z,40.33
2023-02-11T17:04:17.519Z,35.85
2023-02-11T17:06:48.056Z,40.72
2023-02-11T17:09:20.070Z,40.20
2023-02-11T17:11:48.374Z,44.13
2023-02-11T17:14:16.435Z,40.58
2023-02-11T17:16:45.351Z,51.45
2023-02-11T17:19:14.657Z,44.55
2023-02-11T17:21:43.413Z,70.22
2023-02-11T17:24:14.264Z,94.30
2023-02-11T17:26:43.025Z,65.68
2023-02-11T17:29:12.853Z,61.60
2023-02-11T17:31:41.655Z,56.38
2023-02-11T17:34:10.264Z,50.05
2023-02-11T17:36:38.296Z,40.90
2023-02-11T17:39:08.324Z,37.03
2023-02-11T17:41:38.935Z,40.15
2023-02-11T17:44:08.770Z,39.60
2023-02-11T17:46:37.149Z,38.40
2023-02-11T17:49:05.804Z,35.65
2023-02-11T17:51:36.098Z,33.13
2023-02-11T17:54:08.372Z,33.70
2023-02-11T17:56:38.362Z,34.67
2023-02-11T17:59:08.363Z,35.75
2023-02-11T18:01:38.254Z,32.15
2023-02-11T18:04:07.178Z,32.70
2023-02-11T18:06:36.327Z,33.83
2023-02-11T18:09:04.943Z,35.60
2023-02-11T18:11:36.543Z,39.80
2023-02-11T18:14:07.828Z,35.80
2023-02-11T18:16:39.010Z,34.03
2023-02-11T18:19:10.018Z,36.25
2023-02-11T18:21:37.951Z,35.67
2023-02-11T18:24:07.227Z,34.13
2023-02-11T18:26:35.876Z,37.65
2023-02-11T18:29:06.965Z,35.40
2023-02-11T18:31:36.354Z,35.03
2023-02-11T18:34:05.780Z,37.00
2023-02-11T18:36:34.594Z,36.00
2023-02-11T18:39:02.596Z,33.88
2023-02-11T18:41:30.511Z,36.90
2023-02-11T18:44:02.781Z,34.80
2023-02-11T18:46:32.292Z,37.15
2023-02-11T18:49:00.230Z,37.42
2023-02-11T18:51:28.331Z,34.63
2023-02-11T18:53:56.210Z,32.30
2023-02-11T18:56:27.724Z,36.53
2023-02-11T18:59:01.239Z,35.75
2023-02-11T19:01:32.988Z,37.67
2023-02-11T19:04:06.442Z,37.38
2023-02-11T19:06:39.100Z,36.47
2023-02-11T19:09:10.195Z,34.60
2023-02-11T19:11:50.308Z,39.65
2023-02-11T19:14:26.266Z,41.80
2023-02-11T19:16:58.593Z,38.38
2023-02-11T19:19:28.917Z,38.10
2023-02-11T19:21:57.835Z,40.28
2023-02-11T19:24:27.109Z,36.97
2023-02-11T19:26:58.183Z,36.28
2023-02-11T19:29:28.240Z,36.25
2023-02-11T19:32:03.055Z,36.75
2023-02-11T19:34:31.218Z,36.08
2023-02-11T19:37:01.690Z,37.75
2023-02-11T19:39:29.729Z,38.15
2023-02-11T19:41:57.792Z,42.67
2023-02-11T19:44:25.716Z,38.30
2023-02-11T19:46:54.719Z,42.55
2023-02-11T19:49:25.979Z,37.70
2023-02-11T19:51:55.560Z,43.08
2023-02-11T19:54:23.659Z,45.92
2023-02-11T19:56:51.862Z,40.60
2023-02-11T19:59:20.791Z,42.33
2023-02-11T20:01:49.148Z,44.50
2023-02-11T20:04:17.945Z,40.95
2023-02-11T20:06:48.358Z,41.90
2023-02-11T20:09:16.588Z,46.75
2023-02-11T20:11:44.547Z,45.10
2023-02-11T20:14:14.847Z,43.60
2023-02-11T20:16:49.089Z,46.25
2023-02-11T20:19:22.131Z,42.53
2023-02-11T20:21:53.744Z,42.35
2023-02-11T20:24:22.633Z,33.20
2023-02-11T20:26:55.325Z,49.83
2023-02-11T20:29:24.294Z,73.43
2023-02-11T20:31:52.379Z,66.72
2023-02-11T20:34:21.909Z,67.65
2023-02-11T20:36:52.770Z,58.38
2023-02-11T20:39:22.263Z,57.90
2023-02-11T20:41:51.476Z,63.22
2023-02-11T20:44:21.422Z,73.35
2023-02-11T20:46:49.544Z,102.07
2023-02-11T20:49:20.395Z,121.43
2023-02-11T20:51:48.888Z,99.07
2023-02-11T20:54:21.224Z,111.13
2023-02-11T20:56:50.735Z,105.00
2023-02-11T20:59:19.557Z,111.32
